Aeroporto :
LOGIN :

Iscrizione | Disclaimer

   EN    FR    IT 

 










Sommario :    VFR   VFR Marginale   IFR   IFR Intensivo   IFR Molto Intensivo
Visibilità : 
Base nubi : 
>= 8 km
>= 3000ft
5 / 8 km
1000 / 3000 ft
1500m / 5 km
500 / 1000 ft
800 / 1500m
200 / 500 ft
< 800m
< 200 ft
Simboli :   Temporali  Nebbia  Neve Forte  Precipitazioni Forti  Vento > 20 kt
SIGMETs :   Varie  Temporali  Ghiacco  Turbolenza  Onda orograficha  Ceneri Vulcaniche







- Altitudine del aeroporto : 505 ft
- Codice IATA : SXB
- Carte del aeroporto


LFST - Strasbourg

ULTIMO METAR :
  • 232030Z AUTO 35004KT CAVOK 15/09 Q1016 NOSIG

METARs OBSOLETI :
  • 232000Z AUTO 35004KT CAVOK 16/10 Q1016 NOSIG
  • 231930Z AUTO 02004KT CAVOK 18/09 Q1016 NOSIG
  • 231900Z AUTO 01006KT CAVOK 19/09 Q1016 NOSIG
  • 231830Z AUTO 01008KT CAVOK 20/09 Q1016 NOSIG
  • 231800Z AUTO 01009KT CAVOK 21/08 Q1016 NOSIG

TAF TAF LFST
Valido dal 23 a 18 ore il 24 a 18 ore UTC


231700Z 2318/2418 34005KT CAVOK
PROB40
TEMPO 2415/2418 FEW050TCU
Nessun NOTAM noto per questo aeroporto.



MetMap, La meteo Aeronautica in un colpo d'occhio ! - Copyright ORBIFLY Dicembre 2007 - Disclaimer

ORBIFLY MET'MAP TEAM :

Programmazione e sviluppo : Alexandra Zaïnal
Concezione e sviluppo : Baudouin d'Aumeries
Co-Programmazione e sviluppo : Marc-Olivier Méhu
Supporto tecnico e logistico : Manuel Goepfert
Aiuto per la traduzione : Arnaldo La Scala

Contatto : metmap@orbifly.com




FONTI E CREDITI :

   NOAA